Terminal Aerodrome Forecast
Issued by NWS

Home | Current Version | Previous Version | Text Only | Print | Product List | Glossary On
Versions: 1 2 3 4 5 6 7 8 9 10 11 12 13 14 15 16 17 18 19 20
000
FTUS43 KDVN 300600 AAA
TAFBRL
TAF AMD
KBRL 300616Z 3006/3106 19007KT P6SM VCTS SCT006CB BKN030
      TEMPO 3006/3009 1SM TSRA BKN006CB OVC015
     FM301000 23004KT 5SM BR SCT009 OVC030
     FM301300 28006KT 6SM BR BKN025
     FM301500 28007KT P6SM SCT035
     FM302300 24003KT P6SM SKC=

USA.gov is the U.S. government's official web portal to all federal, state and local government web resources and services.